Pelion, South Carolina
Current Conditions -  °F | °C
As of 7:56 PM on Tuesday 21 Oct 2014 (Local Time) from KCAE Reporting Station
Few Clouds Few Clouds  
Wind Chill: 65°   Ceiling: Unl
Heat Index: 65°   Visibility: 10mi
Dew Point: 52°   Wind: 5mph
Humidity: 63%   Direction: 260°W
Pressure: 29.89"   Gusts: NA
Location:  33.76°N, 81.24°W
Report Text: KCAE 212356Z 26004KT 10SM FEW070 18/11 A2989 RMK AO2 SLP122 T01830111 10267 20178 53015
Loading
Personal Weather Stations






























Interactive Weather Map
Tropical Storm Tracking
New forecast layout! Learn more

10-Day Weather Forecast

Advertisements
Track Severe Weather on mobile